createdAt,value
2023-02-17T00:00:29.452Z,20.91
2023-02-17T00:01:15.313Z,20.89
2023-02-17T00:02:04.151Z,20.89
2023-02-17T00:02:47.486Z,20.89
2023-02-17T00:03:30.085Z,23.89
2023-02-17T00:04:14.825Z,23.89
2023-02-17T00:05:00.319Z,20.89
2023-02-17T00:05:45.012Z,29.77
2023-02-17T00:06:30.538Z,29.77
2023-02-17T00:07:15.731Z,29.77
2023-02-17T00:08:00.307Z,20.84
2023-02-17T00:08:45.249Z,19.90
2023-02-17T00:09:34.755Z,19.90
2023-02-17T00:10:15.788Z,19.90
2023-02-17T00:11:00.272Z,19.90
2023-02-17T00:11:49.881Z,19.90
2023-02-17T00:12:30.980Z,19.90
2023-02-17T00:13:19.842Z,19.90
2023-02-17T00:14:02.008Z,19.90
2023-02-17T00:14:50.965Z,19.90
2023-02-17T00:15:37.204Z,19.90
2023-02-17T00:16:19.072Z,19.90
2023-02-17T00:17:05.482Z,19.90
2023-02-17T00:17:51.810Z,19.90
2023-02-17T00:18:36.853Z,19.90
2023-02-17T00:19:23.768Z,19.90
2023-02-17T00:20:07.418Z,19.90
2023-02-17T00:20:52.140Z,19.90
2023-02-17T00:21:36.757Z,19.90
2023-02-17T00:22:22.601Z,19.90
2023-02-17T00:23:07.402Z,19.90
2023-02-17T00:23:52.084Z,19.90
2023-02-17T00:24:37.195Z,19.90
2023-02-17T00:25:22.248Z,19.90
2023-02-17T00:26:07.576Z,19.90
2023-02-17T00:26:52.660Z,19.90
2023-02-17T00:27:37.296Z,19.90
2023-02-17T00:28:22.672Z,19.90
2023-02-17T00:29:07.463Z,19.90
2023-02-17T00:29:52.669Z,19.90
2023-02-17T00:30:37.532Z,19.90
2023-02-17T00:31:22.783Z,19.90
2023-02-17T00:32:09.566Z,19.90
2023-02-17T00:32:52.900Z,19.90
2023-02-17T00:33:38.083Z,19.90
2023-02-17T00:34:22.809Z,19.90
2023-02-17T00:35:07.894Z,19.90
2023-02-17T00:35:52.719Z,19.90
2023-02-17T00:36:37.872Z,19.90
2023-02-17T00:37:22.817Z,19.90
2023-02-17T00:38:07.929Z,19.90
2023-02-17T00:38:53.478Z,19.90
2023-02-17T00:39:38.248Z,19.90
2023-02-17T00:40:23.324Z,19.90
2023-02-17T00:41:08.225Z,19.90
2023-02-17T00:41:53.645Z,19.90
2023-02-17T00:42:38.757Z,19.90
2023-02-17T00:43:23.238Z,19.90
2023-02-17T00:44:08.684Z,19.90
2023-02-17T00:44:53.413Z,19.90
2023-02-17T00:45:38.164Z,19.90
2023-02-17T00:46:23.797Z,19.90
2023-02-17T00:47:08.820Z,19.90
2023-02-17T00:47:53.833Z,19.90
2023-02-17T00:48:38.941Z,19.90
2023-02-17T00:49:24.414Z,19.90
2023-02-17T00:50:10.025Z,19.90
2023-02-17T00:50:53.742Z,19.90
2023-02-17T00:51:38.923Z,19.90
2023-02-17T00:52:24.073Z,19.90
2023-02-17T00:53:09.084Z,19.90
2023-02-17T00:53:53.976Z,19.90
2023-02-17T00:54:39.231Z,19.90
2023-02-17T00:55:24.084Z,19.90
2023-02-17T00:56:09.562Z,19.90
2023-02-17T00:56:54.222Z,19.90
2023-02-17T00:57:39.108Z,19.90
2023-02-17T00:58:24.930Z,19.90
2023-02-17T00:59:09.363Z,19.90
2023-02-17T00:59:54.483Z,19.90
2023-02-17T01:00:39.346Z,19.90
2023-02-17T01:01:24.577Z,19.90
2023-02-17T01:02:09.993Z,19.90
2023-02-17T01:02:54.342Z,19.90
2023-02-17T01:03:37.996Z,19.90
2023-02-17T01:04:24.571Z,19.90
2023-02-17T01:05:09.521Z,19.90
2023-02-17T01:05:54.747Z,19.90
2023-02-17T01:06:40.386Z,19.90
2023-02-17T01:07:25.016Z,19.90
2023-02-17T01:08:09.437Z,19.90
2023-02-17T01:08:55.123Z,19.90
2023-02-17T01:09:40.218Z,19.90
2023-02-17T01:10:25.058Z,19.90
2023-02-17T01:11:04.680Z,19.90
2023-02-17T01:11:49.600Z,12.53
2023-02-17T01:12:34.529Z,17.56
2023-02-17T01:13:19.303Z,17.56
2023-02-17T01:14:04.654Z,14.74
2023-02-17T01:14:49.955Z,10.73
2023-02-17T01:15:34.924Z,10.73
2023-02-17T01:16:24.097Z,10.73
2023-02-17T01:17:06.361Z,10.73
2023-02-17T01:17:54.519Z,10.73
2023-02-17T01:18:40.738Z,10.73
2023-02-17T01:19:26.016Z,10.73
2023-02-17T01:20:10.971Z,10.73
2023-02-17T01:20:55.834Z,10.73
2023-02-17T01:21:41.605Z,10.73
2023-02-17T01:22:26.061Z,10.73
2023-02-17T01:23:10.905Z,10.73
2023-02-17T01:23:56.019Z,10.73
2023-02-17T01:24:41.197Z,10.73
2023-02-17T01:25:26.031Z,10.73
2023-02-17T01:26:11.216Z,10.73
2023-02-17T01:26:56.510Z,10.73
2023-02-17T01:27:42.382Z,10.73
2023-02-17T01:28:25.773Z,10.73
2023-02-17T01:29:11.872Z,10.73
2023-02-17T01:29:56.412Z,10.73
2023-02-17T01:30:41.609Z,10.73
2023-02-17T01:31:26.854Z,10.73
2023-02-17T01:32:11.444Z,10.73
2023-02-17T01:32:56.794Z,10.73
2023-02-17T01:33:41.963Z,10.73
2023-02-17T01:34:26.982Z,10.73
2023-02-17T01:35:11.689Z,10.73
2023-02-17T01:35:57.245Z,10.73
2023-02-17T01:36:41.590Z,10.73
2023-02-17T01:37:27.038Z,10.73
2023-02-17T01:38:11.900Z,10.73
2023-02-17T01:38:56.873Z,10.73
2023-02-17T01:39:42.253Z,10.73
2023-02-17T01:40:27.324Z,10.73
2023-02-17T01:41:12.331Z,10.73
2023-02-17T01:41:57.283Z,10.73
2023-02-17T01:42:42.306Z,10.73
2023-02-17T01:43:27.115Z,10.73
2023-02-17T01:44:12.658Z,10.73
2023-02-17T01:44:57.494Z,10.73
2023-02-17T01:45:42.061Z,10.73
2023-02-17T01:46:27.531Z,10.73
2023-02-17T01:47:12.566Z,10.73
2023-02-17T01:47:57.458Z,10.73
2023-02-17T01:48:42.500Z,10.73
2023-02-17T01:49:27.524Z,10.73
2023-02-17T01:50:12.706Z,10.73
2023-02-17T01:50:57.842Z,10.73
2023-02-17T01:51:42.897Z,10.73
2023-02-17T01:52:28.048Z,10.73
2023-02-17T01:53:07.708Z,10.73
2023-02-17T01:53:52.446Z,15.92
2023-02-17T01:54:41.611Z,15.92
2023-02-17T01:55:28.029Z,15.92
2023-02-17T01:56:13.474Z,15.92
2023-02-17T01:56:58.000Z,15.92
2023-02-17T01:57:43.408Z,15.92
2023-02-17T01:58:28.211Z,15.92
2023-02-17T01:59:13.350Z,15.92
2023-02-17T01:59:58.311Z,15.92
2023-02-17T02:00:43.557Z,15.92
2023-02-17T02:01:28.528Z,15.92
2023-02-17T02:02:13.790Z,15.92
2023-02-17T02:02:58.521Z,15.92
2023-02-17T02:03:43.538Z,15.92
2023-02-17T02:04:28.543Z,15.92
2023-02-17T02:05:13.702Z,15.92
2023-02-17T02:05:58.506Z,15.92
2023-02-17T02:06:43.624Z,15.92
2023-02-17T02:07:28.894Z,15.92
2023-02-17T02:08:13.764Z,15.92
2023-02-17T02:08:58.782Z,15.92
2023-02-17T02:09:43.840Z,15.92
2023-02-17T02:10:28.999Z,15.92
2023-02-17T02:11:14.460Z,15.92
2023-02-17T02:11:59.116Z,15.92
2023-02-17T02:12:44.391Z,15.92
2023-02-17T02:13:29.233Z,15.92
2023-02-17T02:14:14.285Z,15.92
2023-02-17T02:14:59.236Z,15.92
2023-02-17T02:15:44.500Z,15.92
2023-02-17T02:16:29.810Z,15.92
2023-02-17T02:17:14.392Z,15.92
2023-02-17T02:17:59.573Z,15.92
2023-02-17T02:18:44.620Z,15.92
2023-02-17T02:19:29.812Z,15.92
2023-02-17T02:20:14.737Z,15.92
2023-02-17T02:20:57.493Z,15.92
2023-02-17T02:21:43.474Z,15.92
2023-02-17T02:22:24.194Z,15.92
2023-02-17T02:23:13.119Z,15.92
2023-02-17T02:23:59.889Z,15.92
2023-02-17T02:24:39.340Z,15.92
2023-02-17T02:25:28.784Z,15.92
2023-02-17T02:26:15.099Z,15.92
2023-02-17T02:27:00.227Z,15.92
2023-02-17T02:27:39.838Z,15.92
2023-02-17T02:28:28.858Z,15.92
2023-02-17T02:29:12.147Z,15.92
2023-02-17T02:30:00.652Z,15.92
2023-02-17T02:30:45.800Z,15.92
2023-02-17T02:31:30.377Z,15.92
2023-02-17T02:32:15.503Z,15.92
2023-02-17T02:33:00.595Z,15.92
2023-02-17T02:33:45.900Z,15.92
2023-02-17T02:34:30.707Z,15.92
2023-02-17T02:35:16.630Z,15.92
2023-02-17T02:36:00.614Z,15.92
2023-02-17T02:36:46.083Z,15.92
2023-02-17T02:37:30.654Z,15.92
2023-02-17T02:38:15.813Z,15.92
2023-02-17T02:39:01.053Z,15.92
2023-02-17T02:39:45.929Z,15.92
2023-02-17T02:40:31.503Z,15.92
2023-02-17T02:41:16.236Z,15.92
2023-02-17T02:42:01.272Z,15.92
2023-02-17T02:42:46.339Z,15.92
2023-02-17T02:43:31.468Z,15.92
2023-02-17T02:44:16.550Z,15.92
2023-02-17T02:45:01.561Z,15.92
2023-02-17T02:45:47.007Z,15.92
2023-02-17T02:46:31.629Z,15.92
2023-02-17T02:47:16.718Z,15.92
2023-02-17T02:48:01.623Z,15.92
2023-02-17T02:48:46.998Z,15.92
2023-02-17T02:49:31.323Z,15.92
2023-02-17T02:50:17.263Z,15.92
2023-02-17T02:51:02.074Z,15.92
2023-02-17T02:51:46.851Z,15.92
2023-02-17T02:52:32.175Z,15.92
2023-02-17T02:53:17.126Z,15.92
2023-02-17T02:54:01.881Z,15.92
2023-02-17T02:54:47.339Z,15.92
2023-02-17T02:55:32.771Z,15.92
2023-02-17T02:56:17.164Z,15.92
2023-02-17T02:57:02.191Z,15.92
2023-02-17T02:57:47.586Z,15.92
2023-02-17T02:58:32.245Z,15.92
2023-02-17T02:59:17.057Z,15.92
2023-02-17T03:00:02.487Z,15.92
2023-02-17T03:00:47.603Z,15.92
2023-02-17T03:01:32.590Z,15.92
2023-02-17T03:02:17.739Z,15.92
2023-02-17T03:03:03.273Z,15.92
2023-02-17T03:03:47.546Z,15.92
2023-02-17T03:04:32.533Z,15.92
2023-02-17T03:05:17.872Z,15.92
2023-02-17T03:06:03.240Z,15.92
2023-02-17T03:06:47.933Z,15.92
2023-02-17T03:07:32.817Z,15.92
2023-02-17T03:08:17.943Z,15.92
2023-02-17T03:09:02.990Z,15.92
2023-02-17T03:09:48.131Z,15.92
2023-02-17T03:10:36.312Z,15.92
2023-02-17T03:11:18.333Z,15.92
2023-02-17T03:12:03.462Z,15.92
2023-02-17T03:12:48.971Z,15.92
2023-02-17T03:13:32.847Z,15.92
2023-02-17T03:14:18.401Z,15.92
2023-02-17T03:15:03.554Z,15.92
2023-02-17T03:15:48.852Z,15.92
2023-02-17T03:16:33.583Z,15.92
2023-02-17T03:17:18.377Z,15.92
2023-02-17T03:18:03.941Z,15.92
2023-02-17T03:18:48.866Z,15.92
2023-02-17T03:19:33.682Z,15.92
2023-02-17T03:20:19.728Z,15.92
2023-02-17T03:21:03.998Z,15.92
2023-02-17T03:21:49.268Z,15.92
2023-02-17T03:22:33.811Z,15.92
2023-02-17T03:23:19.130Z,15.92
2023-02-17T03:24:04.048Z,15.92
2023-02-17T03:24:49.119Z,15.92
2023-02-17T03:25:33.964Z,15.92
2023-02-17T03:26:19.351Z,15.92
2023-02-17T03:27:03.610Z,15.92
2023-02-17T03:27:45.358Z,15.92
2023-02-17T03:28:28.441Z,16.96
2023-02-17T03:29:13.627Z,30.92
2023-02-17T03:29:59.318Z,35.91
2023-02-17T03:30:44.062Z,35.86
2023-02-17T03:31:30.712Z,40.90
2023-02-17T03:32:13.774Z,39.85
2023-02-17T03:32:59.022Z,47.84
2023-02-17T03:33:44.252Z,50.83
2023-02-17T03:34:29.021Z,29.93
2023-02-17T03:35:15.596Z,45.89
2023-02-17T03:35:59.058Z,48.88
2023-02-17T03:36:44.252Z,48.88
2023-02-17T03:37:29.461Z,58.85
2023-02-17T03:38:14.270Z,47.88
2023-02-17T03:38:59.406Z,64.84
2023-02-17T03:39:44.251Z,43.89
2023-02-17T03:40:29.631Z,69.83
2023-02-17T03:41:14.330Z,70.83
2023-02-17T03:41:59.971Z,37.91
2023-02-17T03:42:44.865Z,47.88
2023-02-17T03:43:29.370Z,44.89
2023-02-17T03:44:14.242Z,44.89
2023-02-17T03:44:59.563Z,43.89
2023-02-17T03:45:44.840Z,44.89
2023-02-17T03:46:29.492Z,45.89
2023-02-17T03:47:14.802Z,44.89
2023-02-17T03:47:59.891Z,32.92
2023-02-17T03:48:44.819Z,37.91
2023-02-17T03:49:30.130Z,35.91
2023-02-17T03:50:16.187Z,40.90
2023-02-17T03:50:59.841Z,42.89
2023-02-17T03:51:45.138Z,65.84
2023-02-17T03:52:30.510Z,46.82
2023-02-17T03:53:15.298Z,48.88
2023-02-17T03:54:00.289Z,48.88
2023-02-17T03:54:45.555Z,34.91
2023-02-17T03:55:30.674Z,42.89
2023-02-17T03:56:15.512Z,45.89
2023-02-17T03:57:00.387Z,33.92
2023-02-17T03:57:45.949Z,30.92
2023-02-17T03:58:30.469Z,40.90
2023-02-17T03:59:15.232Z,38.87
2023-02-17T04:00:00.384Z,35.91
2023-02-17T04:00:45.459Z,36.91
2023-02-17T04:01:30.870Z,46.88
2023-02-17T04:02:15.948Z,49.81
2023-02-17T04:03:00.612Z,44.89
2023-02-17T04:03:46.241Z,42.89
2023-02-17T04:04:31.108Z,42.89
2023-02-17T04:05:17.184Z,41.90
2023-02-17T04:06:01.252Z,37.91
2023-02-17T04:06:46.209Z,37.91
2023-02-17T04:07:31.077Z,36.88
2023-02-17T04:08:16.432Z,36.91
2023-02-17T04:09:01.265Z,38.90
2023-02-17T04:09:46.317Z,58.85
2023-02-17T04:10:31.782Z,56.86
2023-02-17T04:11:16.278Z,35.91
2023-02-17T04:12:01.234Z,29.93
2023-02-17T04:12:46.814Z,25.94
2023-02-17T04:13:31.696Z,31.92
2023-02-17T04:14:16.671Z,41.90
2023-02-17T04:15:01.845Z,43.89
2023-02-17T04:15:46.889Z,47.88
2023-02-17T04:16:32.483Z,28.93
2023-02-17T04:17:16.879Z,21.95
2023-02-17T04:18:01.783Z,72.82
2023-02-17T04:18:47.226Z,92.77
2023-02-17T04:19:32.045Z,24.94
2023-02-17T04:20:17.118Z,19.95
2023-02-17T04:21:02.693Z,30.92
2023-02-17T04:21:47.218Z,19.95
2023-02-17T04:22:32.283Z,19.95
2023-02-17T04:23:17.126Z,26.93
2023-02-17T04:24:02.528Z,24.94
2023-02-17T04:24:47.341Z,32.92
2023-02-17T04:25:32.787Z,46.88
2023-02-17T04:26:17.277Z,48.88
2023-02-17T04:27:02.509Z,51.87
2023-02-17T04:27:47.875Z,53.87
2023-02-17T04:28:32.936Z,52.87
2023-02-17T04:29:17.489Z,53.87
2023-02-17T04:30:02.818Z,53.87
2023-02-17T04:30:48.601Z,50.87
2023-02-17T04:31:33.056Z,50.87
2023-02-17T04:32:17.976Z,47.88
2023-02-17T04:33:03.202Z,48.88
2023-02-17T04:33:48.424Z,49.88
2023-02-17T04:34:33.135Z,49.88
2023-02-17T04:35:20.634Z,49.88
2023-02-17T04:36:03.744Z,50.87
2023-02-17T04:36:48.472Z,50.87
2023-02-17T04:37:33.448Z,49.88
2023-02-17T04:38:18.495Z,49.88
2023-02-17T04:39:03.472Z,49.88
2023-02-17T04:39:48.685Z,47.88
2023-02-17T04:40:33.536Z,46.82
2023-02-17T04:41:18.697Z,49.88
2023-02-17T04:42:03.537Z,46.88
2023-02-17T04:42:48.484Z,46.88
2023-02-17T04:43:33.445Z,46.88
2023-02-17T04:44:18.771Z,45.89
2023-02-17T04:45:04.016Z,46.84
2023-02-17T04:45:48.948Z,48.88
2023-02-17T04:46:34.003Z,49.88
2023-02-17T04:47:18.871Z,47.88
2023-02-17T04:48:03.792Z,48.81
2023-02-17T04:48:48.733Z,59.85
2023-02-17T04:49:33.914Z,49.88
2023-02-17T04:50:20.100Z,47.88
2023-02-17T04:51:03.921Z,47.88
2023-02-17T04:51:49.695Z,47.88
2023-02-17T04:52:34.241Z,47.88
2023-02-17T04:53:19.111Z,49.88
2023-02-17T04:54:04.600Z,51.87
2023-02-17T04:54:49.491Z,48.88
2023-02-17T04:55:34.549Z,47.88
2023-02-17T04:56:19.516Z,45.89
2023-02-17T04:57:04.702Z,42.89
2023-02-17T04:57:49.780Z,43.89
2023-02-17T04:58:34.795Z,42.89
2023-02-17T04:59:19.854Z,45.89
2023-02-17T05:00:04.797Z,45.89
2023-02-17T05:00:49.990Z,44.89
2023-02-17T05:01:34.637Z,46.88
2023-02-17T05:02:19.732Z,48.88
2023-02-17T05:03:05.014Z,48.88
2023-02-17T05:03:50.348Z,48.88
2023-02-17T05:04:35.119Z,47.88
2023-02-17T05:05:20.085Z,59.85
2023-02-17T05:06:05.603Z,49.88
2023-02-17T05:06:50.928Z,48.88
2023-02-17T05:07:35.488Z,48.88
2023-02-17T05:08:20.405Z,49.88
2023-02-17T05:09:05.056Z,50.87
2023-02-17T05:09:50.637Z,50.87
2023-02-17T05:10:35.825Z,50.87
2023-02-17T05:11:20.877Z,51.87
2023-02-17T05:12:05.690Z,50.87
2023-02-17T05:12:51.115Z,49.88
2023-02-17T05:13:35.896Z,49.81
2023-02-17T05:14:20.994Z,49.88
2023-02-17T05:15:05.947Z,57.86
2023-02-17T05:15:51.189Z,57.86
2023-02-17T05:16:36.246Z,60.85
2023-02-17T05:17:20.858Z,53.79
2023-02-17T05:18:06.359Z,65.84
2023-02-17T05:18:51.132Z,66.84
2023-02-17T05:19:36.098Z,82.80
2023-02-17T05:20:21.012Z,82.80
2023-02-17T05:21:06.498Z,77.70
2023-02-17T05:21:51.532Z,81.80
2023-02-17T05:22:36.028Z,81.80
2023-02-17T05:23:21.943Z,87.78
2023-02-17T05:24:06.590Z,91.64
2023-02-17T05:24:51.568Z,91.77
2023-02-17T05:25:36.705Z,87.78
2023-02-17T05:26:21.603Z,87.78
2023-02-17T05:27:06.559Z,88.70
2023-02-17T05:27:51.730Z,88.78
2023-02-17T05:28:36.568Z,88.78
2023-02-17T05:29:21.886Z,91.77
2023-02-17T05:30:07.145Z,90.78
2023-02-17T05:30:52.173Z,88.78
2023-02-17T05:31:36.935Z,90.78
2023-02-17T05:32:22.323Z,92.77
2023-02-17T05:33:07.233Z,93.77
2023-02-17T05:33:52.577Z,88.78
2023-02-17T05:34:37.529Z,89.78
2023-02-17T05:35:22.135Z,83.79
2023-02-17T05:36:07.615Z,80.80
2023-02-17T05:36:52.828Z,73.84
2023-02-17T05:37:38.111Z,72.76
2023-02-17T05:38:22.666Z,75.84
2023-02-17T05:39:07.666Z,81.83
2023-02-17T05:39:52.519Z,74.84
2023-02-17T05:40:37.778Z,70.85
2023-02-17T05:41:22.893Z,78.83
2023-02-17T05:42:07.871Z,85.82
2023-02-17T05:42:52.814Z,81.83
2023-02-17T05:43:37.939Z,82.83
2023-02-17T05:44:22.794Z,89.81
2023-02-17T05:45:07.869Z,92.80
2023-02-17T05:45:52.610Z,92.69
2023-02-17T05:46:38.202Z,97.79
2023-02-17T05:47:23.490Z,98.67
2023-02-17T05:48:08.308Z,99.79
2023-02-17T05:48:53.069Z,94.68
2023-02-17T05:49:38.023Z,77.84
2023-02-17T05:50:23.485Z,77.84
2023-02-17T05:51:08.619Z,67.86
2023-02-17T05:51:53.390Z,70.85
2023-02-17T05:52:38.443Z,70.85
2023-02-17T05:53:23.589Z,70.85
2023-02-17T05:54:08.658Z,61.87
2023-02-17T05:54:53.606Z,54.88
2023-02-17T05:55:38.388Z,51.89
2023-02-17T05:56:24.155Z,50.89
2023-02-17T05:57:08.948Z,51.89
2023-02-17T05:57:53.902Z,46.90
2023-02-17T05:58:38.685Z,65.78
2023-02-17T05:59:23.736Z,73.82
2023-02-17T06:00:08.598Z,71.85
2023-02-17T06:00:53.756Z,75.81
2023-02-17T06:01:39.065Z,71.85
2023-02-17T06:02:24.174Z,71.82
2023-02-17T06:03:09.370Z,72.76
2023-02-17T06:03:54.175Z,73.82
2023-02-17T06:04:39.381Z,70.83
2023-02-17T06:05:23.915Z,71.85
2023-02-17T06:06:09.287Z,71.85
2023-02-17T06:06:54.847Z,63.87
2023-02-17T06:07:39.271Z,62.87
2023-02-17T06:08:24.317Z,67.86
2023-02-17T06:09:09.546Z,68.83
2023-02-17T06:09:55.053Z,69.83
2023-02-17T06:10:39.479Z,63.84
2023-02-17T06:11:24.504Z,66.84
2023-02-17T06:12:09.544Z,66.84
2023-02-17T06:12:54.876Z,69.85
2023-02-17T06:13:39.756Z,71.82
2023-02-17T06:14:25.018Z,71.82
2023-02-17T06:15:09.896Z,72.82
2023-02-17T06:15:55.084Z,76.81
2023-02-17T06:16:40.261Z,81.80
2023-02-17T06:17:25.063Z,88.81
2023-02-17T06:18:10.153Z,85.82
2023-02-17T06:18:55.606Z,87.71
2023-02-17T06:19:40.068Z,86.82
2023-02-17T06:20:25.161Z,87.71
2023-02-17T06:21:10.527Z,89.81
2023-02-17T06:21:55.302Z,86.71
2023-02-17T06:22:40.391Z,80.83
2023-02-17T06:23:25.838Z,76.84
2023-02-17T06:24:10.631Z,75.84
2023-02-17T06:24:55.361Z,83.82
2023-02-17T06:25:40.543Z,84.82
2023-02-17T06:26:25.912Z,86.82
2023-02-17T06:27:10.753Z,84.82
2023-02-17T06:27:55.889Z,82.83
2023-02-17T06:28:41.796Z,84.79
2023-02-17T06:29:25.929Z,85.79
2023-02-17T06:30:10.846Z,82.80
2023-02-17T06:30:55.839Z,80.80
2023-02-17T06:31:41.021Z,75.81
2023-02-17T06:32:25.899Z,85.79
2023-02-17T06:33:11.363Z,80.80
2023-02-17T06:33:55.816Z,72.82
2023-02-17T06:34:41.530Z,72.82
2023-02-17T06:35:26.155Z,70.83
2023-02-17T06:36:11.506Z,75.81
2023-02-17T06:36:56.835Z,75.81
2023-02-17T06:37:41.617Z,83.79
2023-02-17T06:38:26.524Z,77.81
2023-02-17T06:39:11.664Z,72.82
2023-02-17T06:39:56.579Z,79.80
2023-02-17T06:40:41.428Z,77.81
2023-02-17T06:41:27.066Z,80.69
2023-02-17T06:42:11.689Z,62.84
2023-02-17T06:42:56.592Z,62.84
2023-02-17T06:43:41.657Z,57.86
2023-02-17T06:44:27.098Z,57.86
2023-02-17T06:45:12.909Z,75.81
2023-02-17T06:45:57.238Z,82.80
2023-02-17T06:46:42.127Z,82.80
2023-02-17T06:47:26.844Z,84.82
2023-02-17T06:48:12.396Z,75.84
2023-02-17T06:48:57.054Z,80.80
2023-02-17T06:49:42.265Z,74.82
2023-02-17T06:50:27.257Z,72.82
2023-02-17T06:51:12.116Z,72.72
2023-02-17T06:51:56.767Z,80.80
2023-02-17T06:52:42.391Z,84.79
2023-02-17T06:53:27.652Z,84.79
2023-02-17T06:54:12.660Z,81.68
2023-02-17T06:54:57.617Z,82.80
2023-02-17T06:55:43.040Z,81.68
2023-02-17T06:56:27.289Z,69.83
2023-02-17T06:57:12.875Z,66.86
2023-02-17T06:57:57.763Z,71.85
2023-02-17T06:58:42.378Z,71.82
2023-02-17T06:59:27.421Z,71.82
2023-02-17T07:00:12.740Z,67.83
2023-02-17T07:00:57.740Z,66.84
2023-02-17T07:01:42.619Z,68.77
2023-02-17T07:02:27.974Z,57.86
2023-02-17T07:03:13.070Z,56.86
2023-02-17T07:03:57.877Z,60.85
2023-02-17T07:04:43.725Z,64.84
2023-02-17T07:05:28.206Z,66.84
2023-02-17T07:06:13.093Z,68.83
2023-02-17T07:06:58.541Z,64.84
2023-02-17T07:07:43.416Z,64.84
2023-02-17T07:08:28.604Z,61.85
2023-02-17T07:09:13.974Z,61.85
2023-02-17T07:09:58.431Z,49.88
2023-02-17T07:10:44.067Z,49.88
2023-02-17T07:11:28.566Z,40.90
2023-02-17T07:12:13.573Z,34.91
2023-02-17T07:12:58.560Z,38.90
2023-02-17T07:13:44.001Z,38.90
2023-02-17T07:14:28.899Z,25.48
2023-02-17T07:15:14.073Z,25.24
2023-02-17T07:15:59.504Z,25.24
2023-02-17T07:16:44.444Z,29.67
2023-02-17T07:17:29.270Z,31.84
2023-02-17T07:18:14.064Z,27.86
2023-02-17T07:18:58.934Z,38.90
2023-02-17T07:19:44.596Z,6.98
2023-02-17T07:20:29.517Z,6.98
2023-02-17T07:21:14.272Z,12.97
2023-02-17T07:21:59.918Z,7.98
2023-02-17T07:22:45.251Z,8.98
2023-02-17T07:23:29.939Z,8.98
2023-02-17T07:24:14.720Z,7.98
2023-02-17T07:24:59.610Z,7.98
2023-02-17T07:25:44.612Z,16.96
2023-02-17T07:26:29.605Z,14.96
2023-02-17T07:27:15.762Z,13.97
2023-02-17T07:28:00.731Z,12.97
2023-02-17T07:28:45.003Z,23.94
2023-02-17T07:29:29.891Z,44.89
2023-02-17T07:30:15.298Z,45.89
2023-02-17T07:30:59.919Z,43.89
2023-02-17T07:31:45.255Z,44.89
2023-02-17T07:32:30.021Z,37.91
2023-02-17T07:33:15.688Z,40.86
2023-02-17T07:34:00.251Z,33.89
2023-02-17T07:34:45.807Z,8.97
2023-02-17T07:35:30.467Z,15.95
2023-02-17T07:36:15.513Z,12.96
2023-02-17T07:37:00.573Z,13.94
2023-02-17T07:37:45.822Z,11.96
2023-02-17T07:38:31.117Z,20.93
2023-02-17T07:39:15.731Z,12.96
2023-02-17T07:40:00.784Z,26.91
2023-02-17T07:40:46.176Z,25.91
2023-02-17T07:41:30.903Z,29.90
2023-02-17T07:42:15.783Z,29.88
2023-02-17T07:43:00.907Z,36.88
2023-02-17T07:43:46.165Z,40.84
2023-02-17T07:44:31.169Z,33.85
2023-02-17T07:45:16.700Z,39.85
2023-02-17T07:46:01.738Z,38.85
2023-02-17T07:46:46.238Z,38.85
2023-02-17T07:47:31.244Z,41.84
2023-02-17T07:48:16.608Z,41.84
2023-02-17T07:49:01.359Z,43.85
2023-02-17T07:49:46.769Z,39.85
2023-02-17T07:50:31.162Z,41.84
2023-02-17T07:51:16.524Z,42.78
2023-02-17T07:52:02.073Z,41.84
2023-02-17T07:52:46.844Z,41.84
2023-02-17T07:53:31.625Z,39.85
2023-02-17T07:54:16.610Z,43.83
2023-02-17T07:55:01.834Z,43.83
2023-02-17T07:55:47.284Z,42.78
2023-02-17T07:56:32.240Z,42.83
2023-02-17T07:57:17.205Z,59.77
2023-02-17T07:58:01.930Z,64.75
2023-02-17T07:58:47.297Z,71.72
2023-02-17T07:59:32.108Z,72.62
2023-02-17T08:00:18.283Z,69.73
2023-02-17T08:01:02.282Z,72.72
2023-02-17T08:01:47.768Z,72.72
2023-02-17T08:02:32.683Z,91.64
2023-02-17T08:03:17.531Z,91.64
2023-02-17T08:04:02.641Z,89.65
2023-02-17T08:04:47.753Z,87.55
2023-02-17T08:05:32.876Z,82.68
2023-02-17T08:06:17.721Z,81.58
2023-02-17T08:07:02.704Z,82.68
2023-02-17T08:07:47.614Z,82.68
2023-02-17T08:08:33.164Z,86.66
2023-02-17T08:09:17.982Z,83.67
2023-02-17T08:10:03.091Z,82.68
2023-02-17T08:10:48.191Z,82.68
2023-02-17T08:11:33.081Z,82.68
2023-02-17T08:12:18.436Z,82.68
2023-02-17T08:13:02.848Z,82.68
2023-02-17T08:13:49.049Z,85.67
2023-02-17T08:14:33.613Z,79.69
2023-02-17T08:15:18.358Z,90.65
2023-02-17T08:16:03.393Z,90.65
2023-02-17T08:16:50.486Z,86.66
2023-02-17T08:17:33.193Z,86.66
2023-02-17T08:18:18.598Z,83.57
2023-02-17T08:19:05.210Z,83.57
2023-02-17T08:19:49.360Z,83.57
2023-02-17T08:20:35.247Z,83.57
2023-02-17T08:21:19.155Z,83.57
2023-02-17T08:22:04.048Z,83.57
2023-02-17T08:22:49.313Z,83.57
2023-02-17T08:23:34.566Z,83.57
2023-02-17T08:24:19.281Z,86.61
2023-02-17T08:25:04.320Z,88.60
2023-02-17T08:25:49.247Z,88.48
2023-02-17T08:26:34.005Z,87.61
2023-02-17T08:27:19.241Z,89.47
2023-02-17T08:28:04.371Z,88.60
2023-02-17T08:28:49.569Z,89.60
2023-02-17T08:29:34.672Z,92.58
2023-02-17T08:30:19.291Z,92.58
2023-02-17T08:31:05.014Z,96.43
2023-02-17T08:31:49.654Z,89.60
2023-02-17T08:32:34.160Z,89.60
2023-02-17T08:33:19.326Z,96.57
2023-02-17T08:34:04.381Z,97.56
2023-02-17T08:34:49.462Z,91.59
2023-02-17T08:35:34.446Z,96.43
2023-02-17T08:36:20.319Z,95.57
2023-02-17T08:37:04.840Z,96.57
2023-02-17T08:37:50.427Z,93.58
2023-02-17T08:38:34.719Z,90.59
2023-02-17T08:39:19.588Z,88.60
2023-02-17T08:40:05.039Z,88.60
2023-02-17T08:40:50.149Z,90.65
2023-02-17T08:41:35.690Z,90.65
2023-02-17T08:42:19.882Z,90.65
2023-02-17T08:43:05.311Z,90.65
2023-02-17T08:43:50.222Z,82.68
2023-02-17T08:44:36.112Z,82.68
2023-02-17T08:45:22.745Z,82.68
2023-02-17T08:46:05.488Z,82.72
2023-02-17T08:46:50.658Z,86.55
2023-02-17T08:47:35.469Z,81.68
2023-02-17T08:48:20.399Z,81.68
2023-02-17T08:49:05.626Z,90.65
2023-02-17T08:49:50.934Z,91.64
2023-02-17T08:50:35.574Z,91.64
2023-02-17T08:51:20.779Z,87.61
2023-02-17T08:52:05.730Z,82.68
2023-02-17T08:52:51.000Z,79.64
2023-02-17T08:53:35.888Z,76.66
2023-02-17T08:54:21.005Z,95.57
2023-02-17T08:55:05.862Z,102.39
2023-02-17T08:55:50.687Z,99.55
2023-02-17T08:56:35.992Z,102.47
2023-02-17T08:57:20.682Z,103.53
2023-02-17T08:58:06.144Z,103.53
2023-02-17T08:58:50.598Z,96.57
2023-02-17T08:59:36.677Z,101.54
2023-02-17T09:00:20.706Z,95.57
2023-02-17T09:01:06.327Z,102.54
2023-02-17T09:01:51.063Z,97.56
2023-02-17T09:02:36.094Z,99.55
2023-02-17T09:03:20.900Z,102.54
2023-02-17T09:04:06.977Z,105.53
2023-02-17T09:04:51.256Z,105.53
2023-02-17T09:05:36.920Z,104.53
2023-02-17T09:06:21.272Z,99.55
2023-02-17T09:07:06.577Z,102.54
2023-02-17T09:07:51.284Z,99.55
2023-02-17T09:08:36.676Z,103.53
2023-02-17T09:09:21.824Z,109.51
2023-02-17T09:10:06.941Z,103.53
2023-02-17T09:10:51.796Z,96.43
2023-02-17T09:11:36.876Z,101.48
2023-02-17T09:12:22.349Z,103.47
2023-02-17T09:13:07.330Z,101.48
2023-02-17T09:13:51.883Z,94.58
2023-02-17T09:14:37.292Z,102.54
2023-02-17T09:15:23.190Z,106.37
2023-02-17T09:16:07.298Z,103.47
2023-02-17T09:16:52.469Z,100.48
2023-02-17T09:17:37.685Z,97.50
2023-02-17T09:18:22.394Z,100.48
2023-02-17T09:19:07.831Z,100.48
2023-02-17T09:19:52.675Z,107.52
2023-02-17T09:20:37.593Z,101.54
2023-02-17T09:21:22.812Z,101.54
2023-02-17T09:22:07.303Z,97.42
2023-02-17T09:22:52.714Z,93.58
2023-02-17T09:23:37.440Z,91.46
2023-02-17T09:24:22.813Z,88.60
2023-02-17T09:25:07.987Z,93.52
2023-02-17T09:25:52.986Z,94.51
2023-02-17T09:26:37.843Z,94.58
2023-02-17T09:27:22.998Z,87.55
2023-02-17T09:28:08.520Z,93.52
2023-02-17T09:28:53.154Z,88.54
2023-02-17T09:29:38.339Z,86.33
2023-02-17T09:30:22.983Z,80.58
2023-02-17T09:31:09.233Z,80.58
2023-02-17T09:31:53.309Z,80.58
2023-02-17T09:32:44.663Z,90.53
2023-02-17T09:33:24.591Z,90.53
2023-02-17T09:34:08.673Z,90.53
2023-02-17T09:34:53.566Z,90.53
2023-02-17T09:35:38.971Z,90.53
2023-02-17T09:36:23.565Z,90.53
2023-02-17T09:37:09.256Z,90.53
2023-02-17T09:37:54.436Z,90.53
2023-02-17T09:38:38.747Z,90.53
2023-02-17T09:39:23.961Z,90.53
2023-02-17T09:40:08.995Z,90.53